Time;durP1;ratioP1;P1;durP2;ratioP2;P2;SDS_P1;SDS_P2;PMS_P1;PMS_P2;Temp;Humidity;BMP_temperature;BMP_pressure;BME280_temperature;BME280_humidity;BME280_pressure;Samples;Min_cycle;Max_cycle;Signal;HPM_P1;HPM_P2
2023/06/07 00:00:09;;;;;;;;;;;;;;;25.35;37.31;101125.03;5098074;28;1194;-17
2023/06/07 00:02:41;;;;;;;;;;;;;;;25.72;36.27;101117.63;5093897;28;1214;-17
2023/06/07 00:05:07;;;;;;;;;;;;;;;25.60;36.59;101120.59;5080044;28;1229;-17
2023/06/07 00:07:35;;;;;;;;;;;;;;;25.66;36.39;101113.72;5077212;28;1266;-15
2023/06/07 00:10:04;;;;;;;;;;;;;;;25.51;36.50;101116.16;5089055;28;1355;-17
2023/06/07 00:12:29;;;;;;;;;;;;;;;25.23;37.20;101119.09;5067487;28;1980;-17
2023/06/07 00:14:55;;;;;;;;;;;;;;;22.34;45.00;101113.75;5092719;28;1042;-17
2023/06/07 00:17:20;;;;;;;;;;;;;;;24.17;40.15;101109.94;5096289;28;1281;-17
2023/06/07 00:19:46;;;;;;;;;;;;;;;24.34;39.22;101110.09;5097793;28;1046;-17
2023/06/07 00:22:12;;;;;;;;;;;;;;;25.02;37.90;101105.06;5093281;28;1453;-17
2023/06/07 00:24:39;;;;;;;;;;;;;;;25.24;37.56;101108.16;5096617;28;1073;-17
2023/06/07 00:27:04;;;;;;;;;;;;;;;24.97;38.05;101103.81;5097529;28;824;-17
2023/06/07 00:29:30;;;;;;;;;;;;;;;25.60;36.52;101101.75;5097349;28;1153;-17
2023/06/07 00:31:56;;;;;;;;;;;;;;;25.42;36.49;101102.66;5079306;28;1914;-17
2023/06/07 00:34:21;;;;;;;;;;;;;;;25.61;36.45;101100.72;5078993;28;1054;-18
2023/06/07 00:36:47;;;;;;;;;;;;;;;25.80;35.87;101099.63;5078874;28;1124;-17
2023/06/07 00:39:13;;;;;;;;;;;;;;;25.56;36.65;101094.97;5097246;28;1011;-17
2023/06/07 00:41:38;;;;;;;;;;;;;;;22.69;43.44;101094.56;5096901;28;1289;-17
2023/06/07 00:44:04;;;;;;;;;;;;;;;24.39;39.51;101088.94;5079088;28;1378;-17
2023/06/07 00:46:29;;;;;;;;;;;;;;;24.63;38.78;101090.16;5097009;28;1141;-17
2023/06/07 00:48:55;;;;;;;;;;;;;;;24.60;36.74;101082.41;5097257;28;1066;-17
2023/06/07 00:51:21;;;;;;;;;;;;;;;23.92;34.38;101076.63;5078692;28;1984;-17
2023/06/07 00:53:47;;;;;;;;;;;;;;;24.00;32.83;101079.38;5096973;28;1045;-17
2023/06/07 00:56:15;;;;;;;;;;;;;;;23.78;33.19;101078.81;5096990;28;1082;-17
2023/06/07 00:58:42;;;;;;;;;;;;;;;23.94;33.17;101072.75;5078887;28;1086;-17
2023/06/07 01:01:09;;;;;;;;;;;;;;;24.21;32.60;101067.47;5095890;28;1309;-17
2023/06/07 01:03:35;;;;;;;;;;;;;;;23.74;32.46;101066.69;5095811;28;960;-17
2023/06/07 01:06:03;;;;;;;;;;;;;;;23.71;32.11;101061.63;5097160;28;980;-17
2023/06/07 01:08:32;;;;;;;;;;;;;;;23.78;31.82;101060.03;5096719;28;1233;-18
2023/06/07 01:10:57;;;;;;;;;;;;;;;24.49;31.95;101061.97;5072506;28;1981;-17
2023/06/07 01:13:23;;;;;;;;;;;;;;;24.62;31.93;101060.72;5056524;28;1189;-17
2023/06/07 01:15:48;;;;;;;;;;;;;;;24.98;32.04;101063.28;5096275;28;853;-17
2023/06/07 01:18:14;;;;;;;;;;;;;;;25.22;31.44;101059.03;5096418;28;1168;-17
2023/06/07 01:20:39;;;;;;;;;;;;;;;25.09;31.59;101051.38;5097026;28;1067;-17
2023/06/07 01:23:05;;;;;;;;;;;;;;;25.22;31.91;101050.97;5076695;28;1308;-17
2023/06/07 01:25:31;;;;;;;;;;;;;;;25.14;31.80;101050.94;5093290;28;1558;-17
2023/06/07 01:27:57;;;;;;;;;;;;;;;22.28;38.35;101047.31;5078174;28;873;-17
2023/06/07 01:30:23;;;;;;;;;;;;;;;24.03;34.98;101037.91;5078416;28;1302;-17
2023/06/07 01:32:48;;;;;;;;;;;;;;;24.31;34.53;101044.03;5077887;28;1973;-18
2023/06/07 01:35:14;;;;;;;;;;;;;;;24.47;34.30;101045.16;5078235;28;1090;-17
2023/06/07 01:37:40;;;;;;;;;;;;;;;24.92;33.83;101048.63;5078115;28;1039;-17
2023/06/07 01:40:06;;;;;;;;;;;;;;;24.42;34.94;101040.25;5064609;28;1055;-17
2023/06/07 01:42:33;;;;;;;;;;;;;;;25.13;33.71;101043.84;5078568;28;1189;-17
2023/06/07 01:44:59;;;;;;;;;;;;;;;24.83;34.41;101047.72;5078081;28;1209;-17
2023/06/07 01:47:25;;;;;;;;;;;;;;;24.38;34.99;101041.56;5096371;28;1113;-18
2023/06/07 01:49:51;;;;;;;;;;;;;;;25.15;34.17;101049.91;5096503;28;1284;-18
2023/06/07 01:52:16;;;;;;;;;;;;;;;24.76;35.17;101040.44;5077841;28;1917;-17
2023/06/07 01:54:42;;;;;;;;;;;;;;;24.90;35.09;101055.16;5078197;28;1139;-17
2023/06/07 01:57:17;;;;;;;;;;;;;;;24.99;35.47;101050.69;5096341;28;1161;-17
2023/06/07 01:59:46;;;;;;;;;;;;;;;24.75;35.58;101065.66;5078104;28;1114;-17
2023/06/07 02:02:32;;;;;;;;;;;;;;;25.09;36.06;101055.94;5077617;28;1058;-17
2023/06/07 02:05:01;;;;;;;;;;;;;;;21.39;43.63;101061.47;5070104;28;1089;-17
2023/06/07 02:07:27;;;;;;;;;;;;;;;23.29;40.14;101061.13;5077338;28;1087;-17
2023/06/07 02:09:53;;;;;;;;;;;;;;;23.66;38.84;101061.22;5074984;28;1248;-17
2023/06/07 02:12:18;;;;;;;;;;;;;;;24.50;37.55;101066.34;5074666;28;1913;-17
2023/06/07 02:14:45;;;;;;;;;;;;;;;24.41;37.08;101070.81;5074526;28;1260;-17
2023/06/07 02:17:11;;;;;;;;;;;;;;;24.67;36.82;101066.47;5074258;28;1042;-17
2023/06/07 02:19:37;;;;;;;;;;;;;;;24.82;36.54;101066.72;5075940;28;1070;-17
2023/06/07 02:22:03;;;;;;;;;;;;;;;24.52;36.89;101068.91;5074130;28;1135;-17
2023/06/07 02:24:29;;;;;;;;;;;;;;;24.97;36.33;101071.53;5074601;28;1126;-17
2023/06/07 02:26:55;;;;;;;;;;;;;;;24.82;36.49;101067.56;5074021;28;1086;-17
2023/06/07 02:29:21;;;;;;;;;;;;;;;24.89;36.13;101075.00;5075626;28;990;-17
2023/06/07 02:31:50;;;;;;;;;;;;;;;24.98;35.93;101068.69;5075853;28;1984;-17
2023/06/07 02:34:15;;;;;;;;;;;;;;;25.17;35.66;101078.34;5076033;28;1075;-17
2023/06/07 02:36:41;;;;;;;;;;;;;;;25.25;35.50;101076.69;5076163;28;1014;-18
2023/06/07 02:39:10;;;;;;;;;;;;;;;25.42;34.77;101073.03;5077458;28;1020;-17
2023/06/07 02:41:36;;;;;;;;;;;;;;;25.37;34.99;101069.19;5079803;28;1043;-17
2023/06/07 02:44:01;;;;;;;;;;;;;;;21.72;44.03;101068.44;5079159;28;1189;-17
2023/06/07 02:46:27;;;;;;;;;;;;;;;23.36;39.51;101064.91;5079436;28;1057;-18
2023/06/07 02:48:53;;;;;;;;;;;;;;;23.74;38.51;101066.69;5041498;28;1421;-17
2023/06/07 02:51:19;;;;;;;;;;;;;;;24.54;36.82;101067.72;5094521;28;1897;-17
2023/06/07 02:53:49;;;;;;;;;;;;;;;24.40;37.22;101071.84;5078150;28;1126;-17
2023/06/07 02:56:17;;;;;;;;;;;;;;;24.26;37.20;101059.78;5077886;28;1221;-17
2023/06/07 02:58:42;;;;;;;;;;;;;;;24.75;36.21;101062.97;5077976;28;1218;-17
2023/06/07 03:01:08;;;;;;;;;;;;;;;24.56;36.69;101063.03;5076610;28;1101;-19
2023/06/07 03:03:38;;;;;;;;;;;;;;;24.28;37.82;101060.50;5067771;28;1392;-20
2023/06/07 03:06:10;;;;;;;;;;;;;;;23.75;40.11;101052.28;5077424;28;1154;-19
2023/06/07 03:08:37;;;;;;;;;;;;;;;23.77;40.24;101062.88;5077484;28;1273;-19
2023/06/07 03:11:04;;;;;;;;;;;;;;;23.62;40.39;101066.09;5077467;28;1906;-19
2023/06/07 03:13:34;;;;;;;;;;;;;;;23.64;40.79;101069.44;5077292;28;1220;-19
2023/06/07 03:16:02;;;;;;;;;;;;;;;23.47;40.96;101066.56;5077546;28;1366;-19
2023/06/07 03:18:32;;;;;;;;;;;;;;;23.20;42.11;101064.72;5077392;28;1920;-19
2023/06/07 03:21:00;;;;;;;;;;;;;;;23.22;42.41;101074.31;5076841;28;1229;-19
2023/06/07 03:23:28;;;;;;;;;;;;;;;23.22;42.42;101068.94;5077487;28;1098;-19
2023/06/07 03:25:56;;;;;;;;;;;;;;;23.25;42.21;101073.19;5078524;28;1010;-19
2023/06/07 03:28:26;;;;;;;;;;;;;;;23.24;42.38;101075.00;5076606;28;1229;-19
2023/06/07 03:30:51;;;;;;;;;;;;;;;22.87;43.66;101076.72;5076993;28;1089;-20
2023/06/07 03:33:23;;;;;;;;;;;;;;;23.09;42.89;101079.16;5058859;28;2125;-21
2023/06/07 03:35:49;;;;;;;;;;;;;;;23.37;42.24;101079.19;5076638;28;1183;-20
2023/06/07 03:38:23;;;;;;;;;;;;;;;23.38;42.72;101090.75;5076993;28;1391;-19
2023/06/07 03:40:52;;;;;;;;;;;;;;;23.44;42.87;101085.66;5073818;28;1588;-20
2023/06/07 03:43:18;;;;;;;;;;;;;;;23.25;43.74;101094.66;5077089;28;1189;-19
2023/06/07 03:45:44;;;;;;;;;;;;;;;23.32;43.31;101087.69;5077056;28;1122;-19
2023/06/07 03:48:12;;;;;;;;;;;;;;;23.12;44.14;101090.44;5072000;28;1226;-19
2023/06/07 03:50:38;;;;;;;;;;;;;;;23.24;44.36;101101.84;5075770;28;1341;-19
2023/06/07 03:53:03;;;;;;;;;;;;;;;23.45;44.06;101097.25;5073562;28;1934;-19
2023/06/07 03:55:33;;;;;;;;;;;;;;;24.13;41.41;101089.72;5076194;28;1275;-17
2023/06/07 03:57:59;;;;;;;;;;;;;;;23.58;42.51;101088.84;5074849;28;1219;-17
2023/06/07 04:00:27;;;;;;;;;;;;;;;23.97;41.98;101093.13;5075819;28;1360;-17
2023/06/07 04:02:55;;;;;;;;;;;;;;;24.50;40.85;101095.09;5067746;28;1090;-16
2023/06/07 04:05:24;;;;;;;;;;;;;;;24.59;40.94;101086.06;5075194;28;1169;-17
2023/06/07 04:07:50;;;;;;;;;;;;;;;25.00;40.63;101092.75;5077841;28;1260;-16
2023/06/07 04:10:16;;;;;;;;;;;;;;;25.10;40.48;101090.78;5075643;28;1398;-17
2023/06/07 04:12:43;;;;;;;;;;;;;;;25.08;40.40;101087.41;5096991;28;1898;-17
2023/06/07 04:15:09;;;;;;;;;;;;;;;25.02;40.40;101093.44;5065939;28;1230;-17
2023/06/07 04:17:35;;;;;;;;;;;;;;;25.05;40.24;101082.34;5068895;28;1241;-17
2023/06/07 04:20:03;;;;;;;;;;;;;;;24.97;40.57;101085.00;5068893;28;1190;-18
2023/06/07 04:22:30;;;;;;;;;;;;;;;25.02;40.56;101085.34;5069873;28;1262;-17
2023/06/07 04:24:57;;;;;;;;;;;;;;;25.03;40.89;101078.97;5077279;28;1234;-17
2023/06/07 04:27:23;;;;;;;;;;;;;;;24.79;41.78;101070.56;5076231;28;1308;-17
2023/06/07 04:29:53;;;;;;;;;;;;;;;24.98;40.63;101078.59;5072267;28;1517;-17
2023/06/07 04:32:21;;;;;;;;;;;;;;;25.12;40.38;101078.00;5096840;28;1893;-17
2023/06/07 04:34:51;;;;;;;;;;;;;;;25.08;39.92;101079.31;5078505;28;1230;-17
2023/06/07 04:37:19;;;;;;;;;;;;;;;24.98;39.73;101079.44;5078789;28;1141;-18
2023/06/07 04:39:49;;;;;;;;;;;;;;;25.05;39.81;101085.03;5092410;28;1269;-17
2023/06/07 04:42:16;;;;;;;;;;;;;;;25.06;39.14;101090.25;5072167;28;1333;-17
2023/06/07 04:44:42;;;;;;;;;;;;;;;25.25;38.85;101100.94;5072037;28;1298;-17
2023/06/07 04:47:13;;;;;;;;;;;;;;;24.95;39.63;101098.59;5073067;28;1320;-17
2023/06/07 04:49:40;;;;;;;;;;;;;;;25.23;39.81;101106.47;5079354;28;1314;-17
2023/06/07 04:52:06;;;;;;;;;;;;;;;25.39;39.36;101105.69;5065358;28;1965;-17
2023/06/07 04:54:36;;;;;;;;;;;;;;;25.07;39.93;101094.63;5078940;28;1330;-16
2023/06/07 04:57:04;;;;;;;;;;;;;;;24.85;40.01;101103.22;5060330;28;1310;-16
2023/06/07 04:59:34;;;;;;;;;;;;;;;24.88;39.87;101098.38;5068513;28;1317;-16
2023/06/07 05:02:03;;;;;;;;;;;;;;;25.09;39.44;101107.91;5060891;28;1254;-16
2023/06/07 05:04:30;;;;;;;;;;;;;;;25.02;39.95;101096.13;5064718;28;1280;-15
2023/06/07 05:06:58;;;;;;;;;;;;;;;25.54;38.60;101097.84;5059170;28;1321;-16
2023/06/07 05:09:27;;;;;;;;;;;;;;;25.40;39.30;101096.63;5069983;28;1433;-16
2023/06/07 05:11:53;;;;;;;;;;;;;;;25.50;38.39;101087.56;5065509;28;1909;-16
2023/06/07 05:14:19;;;;;;;;;;;;;;;25.12;39.39;101096.00;5066229;28;1233;-16
2023/06/07 05:16:45;;;;;;;;;;;;;;;25.12;39.23;101090.63;5068873;28;1138;-16
2023/06/07 05:19:12;;;;;;;;;;;;;;;25.52;38.73;101094.47;5078404;28;1233;-16
2023/06/07 05:21:40;;;;;;;;;;;;;;;25.51;38.21;101090.09;5067512;28;1127;-15
2023/06/07 05:24:06;;;;;;;;;;;;;;;24.75;39.32;101087.19;5077715;28;996;-16
2023/06/07 05:26:31;;;;;;;;;;;;;;;24.83;39.79;101084.53;5079758;28;1002;-16
2023/06/07 05:28:57;;;;;;;;;;;;;;;25.10;39.47;101092.63;5087384;28;988;-17
2023/06/07 05:31:23;;;;;;;;;;;;;;;25.47;37.80;101087.88;5075417;28;1981;-16
2023/06/07 05:33:48;;;;;;;;;;;;;;;25.15;39.13;101095.69;5078201;28;1126;-16
2023/06/07 05:36:17;;;;;;;;;;;;;;;24.82;40.03;101097.16;5068727;28;1282;-17
2023/06/07 05:38:43;;;;;;;;;;;;;;;25.00;39.39;101101.66;5078045;28;2060;-17
2023/06/07 05:41:09;;;;;;;;;;;;;;;24.96;39.28;101096.78;5066807;28;1300;-16
2023/06/07 05:43:36;;;;;;;;;;;;;;;24.91;38.67;101094.53;5095469;28;1320;-17
2023/06/07 05:46:01;;;;;;;;;;;;;;;25.26;38.17;101094.53;5070902;28;1243;-16
2023/06/07 05:48:27;;;;;;;;;;;;;;;25.65;36.20;101093.19;5092596;28;1175;-17
2023/06/07 05:50:53;;;;;;;;;;;;;;;25.60;36.04;101093.66;5075139;28;1258;-16
2023/06/07 05:53:18;;;;;;;;;;;;;;;25.81;35.55;101097.75;5088864;28;1910;-17
2023/06/07 05:55:45;;;;;;;;;;;;;;;25.58;35.64;101092.13;5085592;28;1214;-17
2023/06/07 05:58:10;;;;;;;;;;;;;;;25.70;35.80;101098.94;5085748;28;1249;-17
2023/06/07 06:00:36;;;;;;;;;;;;;;;25.79;35.41;101094.41;5087093;28;1182;-17
2023/06/07 06:03:02;;;;;;;;;;;;;;;26.06;35.52;101100.47;5083647;28;1218;-17
2023/06/07 06:05:27;;;;;;;;;;;;;;;26.15;35.29;101096.81;5101129;28;1334;-17
2023/06/07 06:07:53;;;;;;;;;;;;;;;26.25;35.46;101102.03;5087087;28;1094;-17
2023/06/07 06:10:19;;;;;;;;;;;;;;;26.29;35.46;101105.22;5084118;28;1038;-17
2023/06/07 06:12:45;;;;;;;;;;;;;;;26.09;35.55;101102.84;5098388;28;1975;-17
2023/06/07 06:15:11;;;;;;;;;;;;;;;26.16;35.13;101103.00;5099781;28;1404;-17
2023/06/07 06:17:37;;;;;;;;;;;;;;;26.18;35.75;101095.59;5086469;28;1102;-16
2023/06/07 06:20:02;;;;;;;;;;;;;;;26.04;35.68;101089.88;5091180;28;1205;-17
2023/06/07 06:22:28;;;;;;;;;;;;;;;26.02;36.03;101099.16;5092909;28;1107;-17
2023/06/07 06:24:54;;;;;;;;;;;;;;;26.27;34.28;101091.06;5089374;28;1178;-17
2023/06/07 06:27:20;;;;;;;;;;;;;;;26.11;33.62;101092.75;5098670;28;1011;-17
2023/06/07 06:29:46;;;;;;;;;;;;;;;26.38;33.98;101096.16;5090559;28;953;-17
2023/06/07 06:32:11;;;;;;;;;;;;;;;26.29;32.55;101094.44;5092367;28;1983;-16
2023/06/07 06:34:37;;;;;;;;;;;;;;;26.10;33.04;101090.22;5089216;28;1127;-17
2023/06/07 06:37:04;;;;;;;;;;;;;;;26.40;33.51;101090.59;5096774;28;1045;-16
2023/06/07 06:39:30;;;;;;;;;;;;;;;26.41;33.30;101092.25;5079726;28;1031;-17
2023/06/07 06:41:55;;;;;;;;;;;;;;;26.50;33.16;101104.75;5092064;28;1221;-16
2023/06/07 06:44:35;;;;;;;;;;;;;;;25.86;33.21;101099.97;5064533;28;1230;-17
2023/06/07 06:47:00;;;;;;;;;;;;;;;25.00;31.99;101106.19;5099342;28;1046;-16
2023/06/07 06:49:26;;;;;;;;;;;;;;;25.72;31.53;101096.06;5099271;28;1487;-16
2023/06/07 06:51:51;;;;;;;;;;;;;;;26.05;30.73;101096.13;5091076;28;1914;-16
2023/06/07 06:57:08;;;;;;;;;;;;;;;26.12;31.29;101088.19;5054386;27;1462098;-28
2023/06/07 06:59:34;;;;;;;;;;;;;;;26.51;31.19;101087.53;5080804;28;1066;-27
2023/06/07 07:01:59;;;;;;;;;;;;;;;26.65;31.14;101087.84;5093811;28;1126;-27
2023/06/07 07:04:25;;;;;;;;;;;;;;;26.65;31.36;101087.84;5091357;28;1146;-27
2023/06/07 07:06:51;;;;;;;;;;;;;;;26.76;31.90;101082.09;5073723;28;1091;-28
2023/06/07 07:09:16;;;;;;;;;;;;;;;26.95;31.63;101089.97;5073255;28;1075;-26
2023/06/07 07:11:42;;;;;;;;;;;;;;;26.84;32.51;101085.78;5073009;28;1048;-28
2023/06/07 07:14:07;;;;;;;;;;;;;;;26.98;32.01;101095.00;5075177;28;1158;-26
2023/06/07 07:16:33;;;;;;;;;;;;;;;27.04;32.16;101094.38;5091577;28;1983;-29
2023/06/07 07:18:59;;;;;;;;;;;;;;;27.03;32.46;101089.97;5076385;28;1195;-28
2023/06/07 07:21:26;;;;;;;;;;;;;;;26.83;32.85;101094.88;5080602;28;1122;-20
2023/06/07 07:23:51;;;;;;;;;;;;;;;26.84;33.09;101099.28;5092299;28;1024;-20
2023/06/07 07:26:17;;;;;;;;;;;;;;;26.77;33.25;101091.88;5062914;28;1123;-19
2023/06/07 07:28:42;;;;;;;;;;;;;;;26.75;33.43;101095.75;5085966;28;1075;-19
2023/06/07 07:31:08;;;;;;;;;;;;;;;26.82;33.86;101102.16;5054883;28;1084;-19
2023/06/07 07:33:33;;;;;;;;;;;;;;;26.74;33.44;101107.56;5076965;28;1313;-19
2023/06/07 07:36:02;;;;;;;;;;;;;;;26.98;33.41;101103.97;5072417;28;1905;-18
2023/06/07 07:38:32;;;;;;;;;;;;;;;26.98;33.50;101109.34;5073932;28;1012;-19
2023/06/07 07:40:58;;;;;;;;;;;;;;;27.12;33.22;101115.09;5091210;28;972;-19
2023/06/07 07:43:24;;;;;;;;;;;;;;;26.98;33.69;101113.91;5092550;28;1111;-19
2023/06/07 07:45:50;;;;;;;;;;;;;;;26.78;33.89;101109.75;5074448;28;1230;-21
2023/06/07 07:48:15;;;;;;;;;;;;;;;26.96;33.54;101115.97;5091570;28;1226;-18
2023/06/07 07:50:41;;;;;;;;;;;;;;;27.05;33.66;101111.38;5088045;28;1146;-18
2023/06/07 07:53:06;;;;;;;;;;;;;;;26.70;34.31;101107.06;5088846;28;1179;-19
2023/06/07 07:55:33;;;;;;;;;;;;;;;26.82;34.66;101099.47;5080657;28;1977;-18
2023/06/07 07:57:58;;;;;;;;;;;;;;;27.20;33.95;101098.00;5090536;28;1134;-18
2023/06/07 08:00:24;;;;;;;;;;;;;;;27.24;33.23;101097.47;5063263;28;913;-19
2023/06/07 08:02:50;;;;;;;;;;;;;;;27.06;33.37;101096.88;5088015;28;1084;-19
2023/06/07 08:05:15;;;;;;;;;;;;;;;26.97;33.29;101096.03;5076006;28;1151;-18
2023/06/07 08:07:41;;;;;;;;;;;;;;;27.19;33.27;101104.44;5072994;28;1031;-18
2023/06/07 08:10:08;;;;;;;;;;;;;;;26.91;33.96;101102.97;5066889;28;1108;-19
2023/06/07 08:12:33;;;;;;;;;;;;;;;26.94;33.93;101096.38;5058983;28;1111;-19
2023/06/07 08:14:59;;;;;;;;;;;;;;;27.10;33.62;101096.38;5070627;28;1906;-18
2023/06/07 08:17:25;;;;;;;;;;;;;;;27.15;33.71;101101.22;5058730;28;1040;-19
2023/06/07 08:19:50;;;;;;;;;;;;;;;26.91;34.19;101100.25;5041802;28;1040;-18
2023/06/07 08:22:16;;;;;;;;;;;;;;;27.01;33.93;101098.25;5078547;28;1004;-18
2023/06/07 08:24:41;;;;;;;;;;;;;;;27.07;33.54;101098.56;5077806;28;1043;-18
2023/06/07 08:27:07;;;;;;;;;;;;;;;27.10;33.58;101106.31;5071322;28;1031;-19
2023/06/07 08:29:33;;;;;;;;;;;;;;;27.17;33.80;101109.16;5058711;28;1051;-19
2023/06/07 08:31:59;;;;;;;;;;;;;;;27.45;33.18;101106.84;5077045;28;1199;-19
2023/06/07 08:34:27;;;;;;;;;;;;;;;27.36;33.21;101108.72;5070213;28;975;-19
2023/06/07 08:36:53;;;;;;;;;;;;;;;27.20;33.78;101109.66;5071493;28;1973;-19
2023/06/07 08:39:19;;;;;;;;;;;;;;;26.66;32.57;101100.31;5070112;28;1023;-19
2023/06/07 08:41:44;;;;;;;;;;;;;;;26.67;32.73;101102.03;5064256;28;1230;-19
2023/06/07 08:44:10;;;;;;;;;;;;;;;26.64;32.72;101105.88;5060134;28;1098;-19
2023/06/07 08:46:36;;;;;;;;;;;;;;;26.48;32.76;101100.50;5056494;28;1070;-19
2023/06/07 08:49:02;;;;;;;;;;;;;;;26.68;32.90;101108.25;5049696;28;1209;-19
2023/06/07 08:51:28;;;;;;;;;;;;;;;26.82;33.50;101112.09;5059882;28;1098;-19
2023/06/07 08:54:01;;;;;;;;;;;;;;;27.15;32.63;101109.34;5053370;28;1035;-19
2023/06/07 08:56:27;;;;;;;;;;;;;;;27.19;32.30;101113.38;5069065;28;1972;-19
2023/06/07 08:58:52;;;;;;;;;;;;;;;27.09;32.60;101115.44;5057327;28;1079;-19
2023/06/07 09:01:20;;;;;;;;;;;;;;;27.04;32.96;101110.56;5074399;28;1080;-19
2023/06/07 09:03:49;;;;;;;;;;;;;;;27.07;32.97;101112.91;5041219;28;1141;-19
2023/06/07 09:06:14;;;;;;;;;;;;;;;26.85;33.17;101109.91;5052303;28;1128;-19
2023/06/07 09:08:40;;;;;;;;;;;;;;;26.94;33.41;101117.97;5040174;28;1006;-19
2023/06/07 09:11:06;;;;;;;;;;;;;;;26.85;33.57;101106.34;5075129;28;1204;-19
2023/06/07 09:13:32;;;;;;;;;;;;;;;27.11;32.83;101116.13;5077666;28;1237;-19
2023/06/07 09:15:59;;;;;;;;;;;;;;;27.14;31.86;101116.59;5047318;28;1973;-19
2023/06/07 09:18:29;;;;;;;;;;;;;;;27.14;32.54;101115.75;5041199;28;1028;-19
2023/06/07 09:20:55;;;;;;;;;;;;;;;27.15;31.90;101114.75;5045424;28;1379;-19
2023/06/07 09:23:20;;;;;;;;;;;;;;;27.12;32.50;101110.53;5058045;28;1028;-19
2023/06/07 09:25:46;;;;;;;;;;;;;;;27.34;31.48;101109.94;5052527;28;1048;-20
2023/06/07 09:28:12;;;;;;;;;;;;;;;27.20;31.88;101114.22;5039789;28;1525;-19
2023/06/07 09:30:54;;;;;;;;;;;;;;;27.21;32.12;101114.03;5074506;28;1113;-18
2023/06/07 09:33:30;;;;;;;;;;;;;;;27.16;31.77;101115.59;5076787;28;1259;-19
2023/06/07 09:36:05;;;;;;;;;;;;;;;27.28;31.68;101111.47;5064132;28;1988;-19
2023/06/07 09:38:30;;;;;;;;;;;;;;;27.21;31.99;101124.00;5059414;28;1039;-19
2023/06/07 09:40:59;;;;;;;;;;;;;;;27.23;31.83;101122.81;5061894;28;1135;-20
2023/06/07 09:43:25;;;;;;;;;;;;;;;27.10;32.59;101119.81;5057223;28;1015;-19
2023/06/07 09:45:54;;;;;;;;;;;;;;;27.53;31.85;101119.47;5057161;28;1000;-19
2023/06/07 09:48:20;;;;;;;;;;;;;;;27.33;31.96;101122.59;5058378;28;1072;-19
2023/06/07 09:50:58;;;;;;;;;;;;;;;27.47;31.92;101122.88;5059668;28;1249;-19
2023/06/07 09:53:23;;;;;;;;;;;;;;;27.44;31.77;101124.09;5060516;28;1135;-20
2023/06/07 09:55:49;;;;;;;;;;;;;;;27.35;32.67;101128.69;5057088;28;1918;-19
2023/06/07 09:58:23;;;;;;;;;;;;;;;27.33;32.92;101127.16;5070207;28;1158;-19
2023/06/07 10:00:52;;;;;;;;;;;;;;;27.24;33.00;101120.97;5038941;28;1336;-19
2023/06/07 10:03:18;;;;;;;;;;;;;;;27.20;33.12;101120.47;5070449;28;1147;-20
2023/06/07 10:05:44;;;;;;;;;;;;;;;27.31;32.99;101110.31;5068554;28;1119;-19
2023/06/07 10:08:10;;;;;;;;;;;;;;;27.47;32.05;101102.13;5054633;28;1101;-19
2023/06/07 10:10:36;;;;;;;;;;;;;;;27.58;32.06;101108.13;5074824;28;1439;-19
2023/06/07 10:13:02;;;;;;;;;;;;;;;27.51;31.59;101110.69;5058747;28;974;-19
2023/06/07 10:15:29;;;;;;;;;;;;;;;27.35;32.56;101095.41;5063703;28;1917;-19
2023/06/07 10:17:55;;;;;;;;;;;;;;;27.67;31.47;101101.66;5053604;28;1061;-19
2023/06/07 10:20:28;;;;;;;;;;;;;;;27.74;31.10;101101.81;5056760;28;894;-19
2023/06/07 10:22:57;;;;;;;;;;;;;;;27.83;31.26;101100.75;5063613;28;993;-20
2023/06/07 10:25:23;;;;;;;;;;;;;;;27.53;31.75;101092.44;5045487;28;1192;-20
2023/06/07 10:27:51;;;;;;;;;;;;;;;27.88;31.31;101100.19;5042312;28;1242;-19
2023/06/07 10:30:17;;;;;;;;;;;;;;;28.02;30.86;101098.59;5045656;28;1144;-19
2023/06/07 10:32:44;;;;;;;;;;;;;;;27.77;31.44;101097.91;5046354;28;1120;-20
2023/06/07 10:35:10;;;;;;;;;;;;;;;27.50;31.98;101106.31;5074554;28;1917;-19
2023/06/07 10:37:36;;;;;;;;;;;;;;;27.25;32.69;101101.88;5071045;28;1043;-20
2023/06/07 10:40:09;;;;;;;;;;;;;;;27.80;31.88;101103.81;5063056;28;1087;-19
2023/06/07 10:42:35;;;;;;;;;;;;;;;27.62;32.44;101098.66;5045645;28;1139;-19
2023/06/07 10:45:00;;;;;;;;;;;;;;;27.63;31.23;101090.38;5051861;28;1171;-19
2023/06/07 10:47:32;;;;;;;;;;;;;;;27.57;31.76;101095.63;5056128;28;1008;-19
2023/06/07 10:49:57;;;;;;;;;;;;;;;27.73;31.98;101092.88;5055761;28;1424;-19
2023/06/07 10:52:23;;;;;;;;;;;;;;;27.96;31.61;101092.03;5072770;28;1063;-19
2023/06/07 10:54:49;;;;;;;;;;;;;;;27.69;32.06;101096.97;5075313;28;1035;-19
2023/06/07 10:57:14;;;;;;;;;;;;;;;27.97;31.40;101090.16;5072190;28;1906;-19
2023/06/07 10:59:40;;;;;;;;;;;;;;;27.87;31.83;101085.00;5057634;28;1202;-19
2023/06/07 11:02:18;;;;;;;;;;;;;;;27.99;31.42;101077.31;5069457;28;1235;-19
2023/06/07 11:04:46;;;;;;;;;;;;;;;28.14;31.44;101077.38;5074672;28;1160;-19
2023/06/07 11:07:22;;;;;;;;;;;;;;;28.09;31.48;101083.28;5067726;28;891;-19
2023/06/07 11:09:48;;;;;;;;;;;;;;;27.97;31.74;101085.63;5071743;28;1419;-19
2023/06/07 11:12:32;;;;;;;;;;;;;;;27.74;32.31;101078.31;5075785;28;1123;-19
2023/06/07 11:15:16;;;;;;;;;;;;;;;27.69;32.33;101082.59;5061358;28;1901;-20
2023/06/07 11:17:52;;;;;;;;;;;;;;;28.13;31.57;101082.97;5067233;28;1297;-19
2023/06/07 11:20:36;;;;;;;;;;;;;;;28.14;31.68;101090.03;5061738;28;918;-19
2023/06/07 11:23:21;;;;;;;;;;;;;;;27.73;32.49;101084.75;5075028;28;1222;-19
2023/06/07 11:25:47;;;;;;;;;;;;;;;27.99;32.09;101083.53;5061022;28;1195;-19
2023/06/07 11:28:12;;;;;;;;;;;;;;;28.10;31.97;101084.16;5061466;28;1043;-19
2023/06/07 11:30:40;;;;;;;;;;;;;;;27.99;31.89;101080.03;5074744;28;1036;-19
2023/06/07 11:33:05;;;;;;;;;;;;;;;28.09;31.88;101074.38;5061524;28;1175;-19
2023/06/07 11:35:31;;;;;;;;;;;;;;;28.13;31.52;101075.66;5062336;28;1910;-19
2023/06/07 11:38:02;;;;;;;;;;;;;;;27.98;31.42;101072.91;5065745;28;1246;-19
2023/06/07 11:40:27;;;;;;;;;;;;;;;28.20;31.41;101073.06;5058885;28;1039;-19
2023/06/07 11:42:53;;;;;;;;;;;;;;;28.26;31.16;101074.22;5077243;28;1046;-19
2023/06/07 11:45:18;;;;;;;;;;;;;;;28.26;31.31;101076.94;5062115;28;1198;-19
2023/06/07 11:47:47;;;;;;;;;;;;;;;28.22;31.52;101076.44;5051685;28;1179;-19
2023/06/07 11:50:13;;;;;;;;;;;;;;;27.82;32.16;101073.88;5061818;28;996;-19
2023/06/07 11:52:39;;;;;;;;;;;;;;;28.10;31.91;101065.22;5059287;28;1115;-19
2023/06/07 11:55:05;;;;;;;;;;;;;;;27.93;32.63;101073.47;5067214;28;1953;-19
2023/06/07 11:57:33;;;;;;;;;;;;;;;27.67;33.14;101071.09;5053839;28;1516;-19
2023/06/07 11:59:58;;;;;;;;;;;;;;;27.77;32.94;101071.72;5076988;28;1108;-20
2023/06/07 12:02:24;;;;;;;;;;;;;;;27.80;32.58;101065.97;5059868;28;1107;-19
2023/06/07 12:04:50;;;;;;;;;;;;;;;27.87;32.66;101064.22;5060667;28;1340;-20
2023/06/07 12:07:18;;;;;;;;;;;;;;;28.13;32.04;101064.84;5062826;28;1198;-19
2023/06/07 12:09:45;;;;;;;;;;;;;;;28.17;31.40;101063.47;5072213;28;1088;-20
2023/06/07 12:12:14;;;;;;;;;;;;;;;28.03;32.20;101054.28;5074515;28;1119;-19
2023/06/07 12:14:40;;;;;;;;;;;;;;;28.07;32.04;101049.34;5072034;28;1220;-19
2023/06/07 12:17:06;;;;;;;;;;;;;;;28.04;31.70;101049.72;5075478;28;1906;-20
2023/06/07 12:19:31;;;;;;;;;;;;;;;27.81;32.15;101048.72;5048314;28;1012;-19
2023/06/07 12:22:03;;;;;;;;;;;;;;;28.00;32.36;101046.53;5078103;28;1046;-20
2023/06/07 12:24:29;;;;;;;;;;;;;;;28.23;31.81;101046.50;5070008;28;1266;-19
2023/06/07 12:26:56;;;;;;;;;;;;;;;28.19;31.78;101047.91;5058332;28;933;-19
2023/06/07 12:29:29;;;;;;;;;;;;;;;27.88;32.67;101043.41;5058546;28;1214;-19
2023/06/07 12:31:55;;;;;;;;;;;;;;;28.01;32.57;101034.69;5073899;28;1179;-19
2023/06/07 12:34:21;;;;;;;;;;;;;;;27.94;31.86;101040.00;5078010;28;1239;-19
2023/06/07 12:36:47;;;;;;;;;;;;;;;27.90;32.36;101038.69;5059802;28;1906;-20
2023/06/07 12:39:13;;;;;;;;;;;;;;;27.85;32.89;101024.84;5060671;28;1253;-20
2023/06/07 12:41:40;;;;;;;;;;;;;;;27.91;32.55;101031.41;5064081;28;1008;-19
2023/06/07 12:44:06;;;;;;;;;;;;;;;28.07;32.10;101030.44;5058029;28;1107;-19
2023/06/07 12:46:32;;;;;;;;;;;;;;;27.98;32.84;101032.34;5070513;28;1167;-19
2023/06/07 12:48:58;;;;;;;;;;;;;;;27.85;33.01;101024.84;5071974;28;1152;-19